Flight Track Log - Related Links

Times and Time Zones

All times are in EDT time to prevent confusion due to time zone crossing. See the ASQ4209 flight status page for this flight to view local times or setup timezone preferences in your user account.

Time Position Orientation Groundspeed Altitude Reporting Facility
EDT Latitude Longitude Course Direction KTS MPH feet Rate Location/Type
Wed 01:26:58 PM 38.7333 -90.3167 84° East 195 224 2,000  Level Gateway (St. Louis) TRACON
Wed 01:27:58 PM 38.7333 -90.2333 90° East 247 284 3,000 1,295 Climbing Gateway (St. Louis) TRACON
Wed 01:28:26 PM 38.7272 -90.1881 100° East 249 287 3,900 2,067 Climbing Kansas City Center
Wed 01:29:00 PM 38.7556 -89.9587 87° East  Level FlightAware Approximate
Wed 01:29:28 PM 38.7372 -90.0906 82° East 272 313 6,100  Level Kansas City Center
Wed 01:30:00 PM 38.7609 -89.8225 87° East  Level FlightAware Approximate
Wed 01:30:30 PM 38.7464 -89.9939 83° East 283 326 8,300  Level Kansas City Center
Wed 01:31:00 PM 38.7659 -89.6863 87° East  Level FlightAware Approximate
Wed 01:31:33 PM 38.7553 -89.8925 84° East 287 330 10,300  Level Kansas City Center
Wed 01:32:00 PM 38.7840 -89.5418 84° East  Level FlightAware Approximate
Wed 01:32:35 PM 38.7658 -89.7808 83° East 315 362 10,900  Level Kansas City Center
Wed 01:33:37 PM 38.7797 -89.6261 83° East 358 412 12,000 1,016 Climbing Kansas City Center
Wed 01:34:39 PM 38.7933 -89.4958 82° East 367 422 13,000 1,113 Climbing Kansas City Center
Wed 01:35:41 PM 38.8119 -89.3531 80° East 375 432 14,300 1,065 Climbing Kansas City Center
Wed 01:36:43 PM 38.8292 -89.2172 81° East 384 442 15,200 919 Climbing Kansas City Center
Wed 01:37:45 PM 38.8486 -89.0686 80° East 394 453 16,200 1,016 Climbing Kansas City Center
Wed 01:38:47 PM 38.8650 -88.9328 81° East 393 452 17,300 1,065 Climbing Kansas City Center
Wed 01:39:49 PM 38.8808 -88.7969 81° East 386 444 18,400 1,016 Climbing Kansas City Center
Wed 01:40:51 PM 38.8981 -88.6569 81° East 391 450 19,400 968 Climbing Kansas City Center
Wed 01:41:53 PM 38.9150 -88.5153 81° East 397 457 20,400 968 Climbing Kansas City Center
Wed 01:42:55 PM 38.9500 -88.3756 72° East 406 467 21,400 968 Climbing Kansas City Center
Wed 01:43:57 PM 38.9889 -88.2378 70° East 409 471 22,400 1,100 Climbing Kansas City Center
Wed 01:44:55 PM 39.0269 -88.1000 70° East 409 471 23,600 1,109 Climbing Indianapolis Center
Wed 01:45:56 PM 39.0650 -87.9608 71° East 408 470 24,600 927 Climbing Indianapolis Center
Wed 01:46:58 PM 39.1036 -87.8214 70° East 410 472 25,500 919 Climbing Indianapolis Center
Wed 01:48:00 PM 39.1417 -87.6814 71° East 411 473 26,500 1,024 Climbing Indianapolis Center
Wed 01:49:01 PM 39.1889 -87.5106 70° East 417 480 27,600 1,073 Climbing Indianapolis Center
Wed 01:50:03 PM 39.2269 -87.3675 71° East 418 481 28,700 1,016 Climbing Indianapolis Center
Wed 01:51:05 PM 39.2653 -87.2267 71° East 415 478 29,700 976 Climbing Indianapolis Center
Wed 01:52:06 PM 39.3039 -87.0836 71° East 418 481 30,700 927 Climbing Indianapolis Center
Wed 01:53:08 PM 39.3422 -86.9408 71° East 419 482 31,600 919 Climbing Indianapolis Center
Wed 01:54:10 PM 39.3803 -86.7978 71° East 420 483 32,600 976 Climbing Indianapolis Center
Wed 01:55:11 PM 39.4175 -86.6539 71° East 420 483 33,600 927 Climbing Indianapolis Center
Wed 01:56:13 PM 39.4558 -86.5100 71° East 421 484 34,500 677 Climbing Indianapolis Center
Wed 01:57:15 PM 39.4919 -86.3656 72° East 421 484 35,000 244 Climbing Indianapolis Center
Wed 01:58:16 PM 39.5325 -86.2164 71° East 434 499 35,000  Level Indianapolis Center
Wed 01:59:18 PM 39.5808 -86.0264 72° East 459 528 35,000  Level Indianapolis Center
Wed 02:00:20 PM 39.6233 -85.8639 71° East 470 541 35,000  Level Indianapolis Center
Wed 02:01:21 PM 39.6833 -85.7081 63° Northeast 479 551 35,000  Level Indianapolis Center
Wed 02:02:23 PM 39.7542 -85.5517 59° Northeast 483 556 35,000  Level Indianapolis Center
Wed 02:03:25 PM 39.8208 -85.4017 60° Northeast 476 548 35,000  Level Indianapolis Center
Wed 02:04:26 PM 39.8889 -85.2517 59° Northeast 477 549 35,000  Level Indianapolis Center
Wed 02:05:28 PM 39.9531 -85.1019 61° Northeast 470 541 35,000  Level Indianapolis Center
Wed 02:06:30 PM 40.0219 -84.9497 59° Northeast 479 551 35,000  Level Indianapolis Center
Wed 02:07:31 PM 40.0894 -84.7967 60° Northeast 482 555 35,000  Level Indianapolis Center
Wed 02:08:33 PM 40.1558 -84.6417 61° Northeast 484 557 35,000  Level Indianapolis Center
Wed 02:09:35 PM 40.2228 -84.4864 61° Northeast 486 559 35,000  Level Indianapolis Center
Wed 02:10:37 PM 40.2900 -84.3311 60° Northeast 484 557 35,000  Level Indianapolis Center
Wed 02:11:38 PM 40.3661 -84.1508 61° Northeast 478 550 35,000  Level Indianapolis Center
Wed 02:12:40 PM 40.4319 -83.9986 60° Northeast 475 547 35,000  Level Indianapolis Center
Wed 02:13:42 PM 40.4956 -83.8475 61° Northeast 469 540 35,000  Level Indianapolis Center
Wed 02:14:44 PM 40.5597 -83.6956 61° Northeast 468 539 35,000  Level Indianapolis Center
Wed 02:15:45 PM 40.6231 -83.5439 61° Northeast 467 537 35,000  Level Indianapolis Center
Wed 02:16:47 PM 40.6867 -83.3897 61° Northeast 472 543 35,000  Level Indianapolis Center
Wed 02:17:49 PM 40.7506 -83.2364 61° Northeast 472 543 35,000  Level Indianapolis Center
Wed 02:18:51 PM 40.8206 -83.0669 61° Northeast 474 545 35,000  Level Indianapolis Center
Wed 02:19:52 PM 40.8839 -82.9131 61° Northeast 474 545 35,000  Level Indianapolis Center
Wed 02:20:15 PM 40.9075 -82.8525 63° Northeast 467 537 35,000  Level Cleveland Center
Wed 02:21:15 PM 40.9689 -82.7033 61° Northeast 467 537 35,000  Level Cleveland Center
Wed 02:22:15 PM 41.0322 -82.5458 62° Northeast 474 545 35,000  Level Cleveland Center
Wed 02:23:15 PM 41.0931 -82.3933 62° Northeast 469 540 35,000  Level Cleveland Center
Wed 02:24:15 PM 41.1578 -82.2378 61° Northeast 469 540 35,000  Level Cleveland Center
Wed 02:25:15 PM 41.2206 -82.0822 62° Northeast 478 550 35,000  Level Cleveland Center
Wed 02:26:15 PM 41.2850 -81.9233 62° Northeast 478 550 35,000  Level Cleveland Center
Wed 02:27:15 PM 41.3450 -81.7697 62° Northeast 468 539 35,000  Level Cleveland Center
Wed 02:28:15 PM 41.4050 -81.6158 62° Northeast 468 539 35,000  Level Cleveland Center
Wed 02:29:15 PM 41.4667 -81.4558 63° Northeast 469 540 35,000  Level Cleveland Center
Wed 02:30:15 PM 41.5261 -81.3042 62° Northeast 461 531 35,000  Level Cleveland Center
Wed 02:31:15 PM 41.5856 -81.1467 63° Northeast 461 531 35,000  Level Cleveland Center
Wed 02:32:15 PM 41.6467 -80.9944 62° Northeast 466 536 35,000  Level Cleveland Center
Wed 02:33:15 PM 41.7053 -80.8333 64° Northeast 473 544 35,000  Level Cleveland Center
Wed 02:34:15 PM 41.7639 -80.6806 63° Northeast 468 539 35,000  Level Cleveland Center
Wed 02:35:15 PM 41.7953 -80.5303 74° East 468 539 35,000  Level Cleveland Center
Wed 02:36:15 PM 41.7783 -80.3547 97° East 453 521 35,000  Level Cleveland Center
Wed 02:37:15 PM 41.7614 -80.1822 97° East 463 533 35,000  Level Cleveland Center
Wed 02:38:15 PM 41.7439 -80.0072 98° East 463 533 35,000  Level Cleveland Center
Wed 02:39:15 PM 41.7242 -79.8375 99° East 463 533 35,000  Level Cleveland Center
Wed 02:40:15 PM 41.7042 -79.6597 99° East 468 539 35,000  Level Cleveland Center
Wed 02:41:15 PM 41.6858 -79.4711 97° East 468 539 35,000  Level Cleveland Center
Wed 02:42:15 PM 41.6675 -79.3128 99° East 473 544 35,000  Level Cleveland Center
Wed 02:43:15 PM 41.6486 -79.1381 98° East 473 544 35,000  Level Cleveland Center
Wed 02:44:15 PM 41.6297 -78.9636 98° East 473 544 35,000  Level Cleveland Center
Wed 02:45:15 PM 41.6103 -78.7892 98° East 473 544 35,000  Level Cleveland Center
Wed 02:46:15 PM 41.5908 -78.6175 99° East 473 544 35,000  Level Cleveland Center
Wed 02:47:15 PM 41.5689 -78.4433 100° East 473 544 35,000 -798 Level Cleveland Center
Wed 02:49:08 PM 41.5331 -78.1289 99° East 475 547 32,700 -1,412 Descending New York Center
Wed 02:50:05 PM 41.5103 -77.9547 100° East 475 547 31,000 -872 Descending New York Center
Wed 02:51:05 PM 41.4869 -77.7861 100° East 470 541 31,000  Level New York Center
Wed 02:52:07 PM 41.4636 -77.6175 100° East 470 541 31,000  Level New York Center
Wed 02:53:08 PM 41.4378 -77.4458 101° East 470 541 31,000  Level New York Center
Wed 02:54:06 PM 41.4086 -77.2603 102° East 470 541 31,000  Level New York Center
Wed 02:55:06 PM 41.3844 -77.0919 101° East 470 541 31,000 -645 Level New York Center
Wed 02:56:07 PM 41.3600 -76.9239 101° East 465 535 29,700 -1,513 Descending New York Center
Wed 02:57:05 PM 41.3311 -76.7556 103° East 465 535 28,000 -1,780 Descending New York Center
Wed 02:58:05 PM 41.2872 -76.5886 109° East 465 535 26,200 -1,983 Descending New York Center
Wed 02:59:06 PM 41.2444 -76.4414 111° Southeast 478 550 24,000 -2,400 Descending New York Center
Wed 03:00:05 PM 41.2019 -76.2808 109° East 478 550 21,400 -2,672 Descending New York Center
Wed 03:01:05 PM 41.1578 -76.1089 109° East 468 539 18,700 -1,686 Descending New York Center
Wed 03:02:06 PM 41.1203 -75.9683 109° East 448 516 18,000 -1,240 Descending New York Center
Wed 03:03:06 PM 41.0806 -75.8247 110° East 429 494 16,200 -2,269 Descending New York Center
Wed 03:04:05 PM 41.0369 -75.6703 110° East 417 480 13,500 -1,600 Descending New York Center
Wed 03:05:06 PM 40.9992 -75.5300 110° East 417 480 13,000 -1,190 Descending New York Center
Wed 03:06:06 PM 40.9606 -75.3956 111° Southeast 398 458 11,100 -1,500 Descending New York Center
Wed 03:07:06 PM 40.9278 -75.2753 110° East 371 427 10,000 -1,240 Descending New York Center
Wed 03:08:07 PM 40.8964 -75.1717 112° Southeast 326 375 8,600 -1,311 Descending New York Center
Wed 03:09:05 PM 40.8706 -75.0767 110° East 311 358 7,400 -800 Descending New York Center
Wed 03:10:07 PM 40.8561 -74.9603 99° East 290 334 7,000 -246 Descending New York Center
Wed 03:11:07 PM 40.8533 -74.8586 92° East 300 345 6,900 -496 Descending New York Center
Wed 03:12:08 PM 40.8719 -74.7392 78° East 300 345 6,000 -458 Descending New York Center
Wed 03:13:05 PM 40.8958 -74.6472 71° East 293 337 6,000 -100 Level New York Center
Wed 03:14:08 PM 40.9283 -74.5447 67° East 288 331 5,800 -500 Descending New York Center
Wed 03:15:05 PM 40.9561 -74.4583 67° East 288 331 5,000 -410 Descending New York Center
Wed 03:16:05 PM 40.9864 -74.3556 69° East 281 323 5,000  Level New York Center
Wed 03:16:24 PM 41.0000 -74.3167 65° Northeast 259 298 5,000  Level New York TRACON
Wed 03:17:24 PM 40.9833 -74.2500 108° East 234 269 5,000 -650 Level New York TRACON
Wed 03:18:24 PM 40.9333 -74.1833 135° Southeast 219 252 3,700 -1,000 Descending New York TRACON
Wed 03:19:24 PM 40.9000 -74.1333 131° Southeast 205 236 3,000 -350 Descending New York TRACON
Wed 03:20:24 PM 40.8667 -74.0833 131° Southeast 198 228 3,000 -250 Level New York TRACON
Wed 03:21:24 PM 40.8167 -74.0833 180° South 180 207 2,500 -500 Descending New York TRACON

Login

Don't have an account? Register now (free) for customized features, flight alerts, and more!